Aeroporto :
LOGIN :

Iscrizione | Disclaimer

   EN    FR    IT 

 










Sommario :    VFR   VFR Marginale   IFR   IFR Intensivo   IFR Molto Intensivo
Visibilità : 
Base nubi : 
>= 8 km
>= 3000ft
5 / 8 km
1000 / 3000 ft
1500m / 5 km
500 / 1000 ft
800 / 1500m
200 / 500 ft
< 800m
< 200 ft
Simboli :   Temporali  Nebbia  Neve Forte  Precipitazioni Forti  Vento > 20 kt
SIGMETs :   Varie  Temporali  Ghiacco  Turbolenza  Onda orograficha  Ceneri Vulcaniche






- Altitudine del aeroporto : 3 ft
- Codice IATA : LWR


EHLW - Leuuwarden Air Base

ULTIMO METAR :
  • 290438Z AUTO 19006KT 4500 DZRA BKN001 FEW015CB 13/13 Q1011 RED

METARs OBSOLETI :
  • 290426Z AUTO 19006KT 150V220 4400 -RA BKN001 FEW015CB 13/13 Q1011 RED
  • 290416Z AUTO 19006KT 150V220 4200 RA BKN002 FEW015CB 13/13 Q1011 AMB
  • 290403Z AUTO 19007KT 3800 RA BKN002 FEW015CB 13/12 Q1011 AMB
  • 290348Z AUTO 19007KT 160V230 3200 DZ BKN002 FEW015CB 13/12 Q1011 AMB
  • 290334Z AUTO 18006KT 150V210 3100 -RADZ BKN002 FEW015CB 12/12 Q1011 AMB
  • 290333Z AUTO 19007KT 150V210 3100 -SHRA +DZ BKN001 FEW015CB 12/12 Q1011 RED
  • 290325Z AUTO 18007KT 150V220 3100 DZ BKN002 FEW015CB 12/12 Q1011 AMB
  • 290255Z AUTO 18008KT 150V210 4400 -UP OVC002 12/12 Q1011 REDZUP AMB
  • 290241Z AUTO 18008KT 150V210 3200 DZRA OVC002 13/12 Q1011 AMB
  • 290225Z AUTO 19008KT 160V220 4200 BR BKN002 OVC003 13/12 Q1011 AMB
  • 290200Z AUTO 19008KT 150V220 5000 BR BKN002 OVC004 13/12 Q1011 AMB
  • 290156Z AUTO 19009KT 150V220 5000 BR SCT002 BKN003 OVC005 13/12 Q1011 AMB

TAF TAF EHLW
Valido dal 29 a 01 ore il 29 a 13 ore UTC


290034Z 2901/2913 18007KT 2500 RADZ BR BKN002 BKN004 OVC006
TEMPO 2901/2909 5000 SCT004 BKN007
BECMG 2907/2909 29007KT
BECMG 2909/2912 9999 NSW SCT020 SCT030



MetMap, La meteo Aeronautica in un colpo d'occhio ! - Copyright ORBIFLY Dicembre 2007 - Disclaimer

ORBIFLY MET'MAP TEAM :

Programmazione e sviluppo : Alexandra Zaïnal
Concezione : Baudouin d'Aumeries
Aiuto per la programmazione : Marc-Olivier Méhu
Supporto tecnico e logistico : Manuel Goepfert
Aiuto per la traduzione : Arnaldo La Scala

Contatto : metmap@orbifly.com




FONTI E CREDITI :

   NOAA